Stations météo

réclame
Mon MeteoGroup
Apt, France (7657): Température de l'air & dewpoint: 06.12.2017 13:00:00 - 12.12.2017 13:00:00 (CET)Apt, France (7657): Vitesse du vent & gusts: 06.12.2017 13:00:00 - 12.12.2017 13:00:00 (CET)Apt, France (7657): Direction du vent: 06.12.2017 13:00:00 - 12.12.2017 13:00:00 (CET)Apt, France (7657): Quantités de précipitations: 06.12.2017 13:00:00 - 12.12.2017 13:00:00 (CET)
Date & Time tt [°C] td [°C] ff [km/h] ff [knt] fx [km/h] fx [knt] dd rr [mm]
12.12.2017 13:00:00 - - - - - - - -
12.12.2017 12:00:00 4,7 0,8 4 2 15 8 WNW 0,0
12.12.2017 11:00:00 5,1 1,8 4 2 8 4 N 0,0
12.12.2017 10:00:00 2,5 0,9 2 1 9 5 SW 0,0
12.12.2017 09:00:00 -1,5 -1,9 4 2 9 5 SW 0,0
12.12.2017 08:00:00 -1,7 -2,1 0 0 9 5 N 0,0
12.12.2017 07:00:00 -1,0 -1,4 8 4 9 5 W -
12.12.2017 06:00:00 -0,7 -1,3 4 2 9 5 W 0,0
12.12.2017 05:00:00 1,5 0,6 11 6 18 10 W 0,0
12.12.2017 04:00:00 2,1 0,6 4 2 16 9 W 0,0
12.12.2017 03:00:00 3,2 1,4 4 2 16 9 W 0,0
12.12.2017 02:00:00 3,3 1,5 11 6 24 13 WSW 0,0
12.12.2017 01:00:00 3,4 1,3 15 8 28 15 WSW -
12.12.2017 00:00:00 3,3 1,5 13 7 28 15 W 0,0
11.12.2017 23:00:00 3,3 1,8 9 5 24 13 W 0,0
11.12.2017 22:00:00 2,8 1,9 8 4 16 9 NW 0,0
11.12.2017 21:00:00 2,0 1,1 8 4 16 9 NNW 0,0
11.12.2017 20:00:00 2,5 1,8 9 5 26 14 NW 0,0
11.12.2017 19:00:00 3,3 2,6 15 8 26 14 NNW -
11.12.2017 18:00:00 4,2 3,3 16 9 34 18 W 1,0
11.12.2017 17:00:00 6,2 5,9 15 8 39 21 W 1,0
11.12.2017 16:00:00 9,0 8,5 29 16 68 37 SSW 7,0
11.12.2017 15:00:00 9,8 9,0 28 15 70 38 S 6,0
11.12.2017 14:00:00 9,4 8,8 24 13 59 32 S 5,0
11.12.2017 13:00:00 9,1 8,6 29 16 65 35 SSW -
11.12.2017 12:00:00 9,3 8,7 21 11 70 38 S 11,0
11.12.2017 11:00:00 9,2 8,4 24 13 67 36 S 10,0
11.12.2017 10:00:00 9,2 8,3 28 15 68 37 S 9,0
11.12.2017 09:00:00 9,0 7,8 34 18 81 44 SSE 9,0
11.12.2017 08:00:00 9,0 7,9 31 17 67 36 S 6,0
11.12.2017 07:00:00 8,3 8,0 24 13 42 23 SSE -
11.12.2017 06:00:00 8,0 7,9 22 12 48 26 SSE 5,0
11.12.2017 05:00:00 7,8 7,7 24 13 55 30 SE 2,0
11.12.2017 04:00:00 7,7 7,6 26 14 59 32 SSE 0,0
11.12.2017 03:00:00 7,6 6,8 28 15 54 29 SSE 0,0
11.12.2017 02:00:00 6,9 6,6 24 13 61 33 SSE 0,0
11.12.2017 01:00:00 7,4 7,3 24 13 67 36 SSE -
11.12.2017 00:00:00 5,5 5,4 18 10 34 18 SE 0,0
10.12.2017 23:00:00 4,2 4,1 13 7 22 12 SE 0,0
10.12.2017 22:00:00 3,9 3,8 15 8 24 13 SSE 0,2
10.12.2017 21:00:00 3,5 3,4 9 5 18 10 SE 2,0
10.12.2017 20:00:00 3,6 3,5 4 2 22 12 SE 3,0
10.12.2017 19:00:00 3,2 3,1 9 5 24 13 SSE -
10.12.2017 18:00:00 2,9 2,8 11 6 22 12 SSE 6,0
10.12.2017 17:00:00 1,8 1,7 4 2 11 6 NE 5,0
10.12.2017 16:00:00 1,5 1,4 8 4 18 10 E 6,0
10.12.2017 15:00:00 1,2 1,1 11 6 21 11 SSE 5,0
10.12.2017 14:00:00 0,6 0,3 8 4 15 8 SE 4,0
10.12.2017 13:00:00 0,3 0,0 2 1 18 10 SSW -
10.12.2017 12:00:00 0,1 -0,3 8 4 18 10 SE 0,6
10.12.2017 11:00:00 -0,3 -0,7 9 5 21 11 SSE 1,0
10.12.2017 10:00:00 -0,8 -1,4 9 5 21 11 SSE 2,0
10.12.2017 09:00:00 -2,1 -2,8 8 4 18 10 SSE 0,8
10.12.2017 08:00:00 -2,7 -3,7 8 4 18 10 SSE 0,6
10.12.2017 07:00:00 -3,2 -4,2 5 3 16 9 SSE -
10.12.2017 06:00:00 -3,6 -5,5 8 4 15 8 SSE 0,2
10.12.2017 05:00:00 -2,8 -8,3 4 2 9 5 SSE 0,0
10.12.2017 04:00:00 -2,7 -8,4 4 2 8 4 SSW 0,0
10.12.2017 03:00:00 -2,9 -8,2 0 0 4 2 N 0,0
10.12.2017 02:00:00 -2,8 -9,5 4 2 8 4 WSW 0,0
10.12.2017 01:00:00 -3,2 -10,1 4 2 18 10 NW -
10.12.2017 00:00:00 -3,4 -10,7 8 4 21 11 NW 0,0
09.12.2017 23:00:00 -3,7 -11,0 5 3 22 12 NW 0,0
09.12.2017 22:00:00 -3,8 -10,7 16 9 24 13 NNW 0,0
09.12.2017 21:00:00 -4,5 -10,3 4 2 35 19 WSW 0,0
09.12.2017 20:00:00 -3,5 -9,7 8 4 22 12 WSW 0,0
09.12.2017 19:00:00 -2,8 -9,7 15 8 34 18 NNW -
09.12.2017 18:00:00 -2,4 -10,0 15 8 31 17 NW 0,0
09.12.2017 17:00:00 -1,6 -10,2 15 8 48 26 NW 0,0
09.12.2017 16:00:00 -0,5 -9,7 31 17 54 29 NW 0,0
09.12.2017 15:00:00 0,2 -9,0 34 18 74 40 NNW 0,0
09.12.2017 14:00:00 0,9 -8,9 35 19 65 35 NNW 0,0
09.12.2017 13:00:00 0,8 -8,7 34 18 59 32 NNW -
09.12.2017 12:00:00 0,4 -8,6 28 15 57 31 NW 0,0
09.12.2017 11:00:00 -0,5 -7,8 28 15 54 29 NW 0,0
09.12.2017 10:00:00 -1,7 -7,4 18 10 46 25 NW 0,0
09.12.2017 09:00:00 -1,0 -9,1 22 12 55 30 WNW 0,0
09.12.2017 08:00:00 -1,5 -9,4 29 16 61 33 NW 0,0
09.12.2017 07:00:00 -1,7 -9,1 31 17 63 34 NW -
09.12.2017 06:00:00 -1,5 -8,5 31 17 55 30 NNW 0,0
09.12.2017 05:00:00 -1,5 -8,3 35 19 65 35 NW 0,0
09.12.2017 04:00:00 -1,5 -8,5 44 24 67 36 NNW 0,0
09.12.2017 03:00:00 -0,9 -7,3 39 21 76 41 NW 0,0
09.12.2017 02:00:00 -0,8 -6,8 35 19 65 35 NNW 0,0
09.12.2017 01:00:00 -0,1 -6,9 41 22 68 37 NNW -
09.12.2017 00:00:00 0,1 -6,3 44 24 74 40 NNW 0,0
08.12.2017 23:00:00 0,3 -6,8 46 25 76 41 NNW 0,0
08.12.2017 22:00:00 0,6 -5,9 37 20 74 40 NW 0,0
08.12.2017 21:00:00 1,2 -5,5 34 18 65 35 NW 0,0
08.12.2017 20:00:00 1,7 -4,4 34 18 70 38 NW 0,0
08.12.2017 19:00:00 1,9 -3,8 28 15 52 28 NW -
08.12.2017 18:00:00 2,1 -3,4 26 14 57 31 WNW 0,0
08.12.2017 17:00:00 2,2 -2,1 34 18 55 30 NW 0,0
08.12.2017 16:00:00 2,8 -0,8 34 18 57 31 NW 0,0
08.12.2017 15:00:00 3,8 3,5 16 9 34 18 NW 0,0
08.12.2017 14:00:00 4,3 3,9 15 8 34 18 NW 0,0
08.12.2017 13:00:00 4,8 4,1 15 8 37 20 W -
08.12.2017 12:00:00 5,0 3,7 5 3 15 8 WNW 0,0
08.12.2017 11:00:00 3,8 3,4 4 2 8 4 NE 0,0
08.12.2017 10:00:00 3,2 2,8 0 0 5 3 N 0,4
08.12.2017 09:00:00 2,8 2,4 0 0 5 3 N 1,0
08.12.2017 08:00:00 2,5 1,9 2 1 8 4 SE 1,0
08.12.2017 07:00:00 2,7 2,0 4 2 9 5 S -
08.12.2017 06:00:00 3,0 1,8 4 2 11 6 S 1,0
08.12.2017 05:00:00 3,4 2,1 4 2 13 7 S 0,0
08.12.2017 04:00:00 2,7 2,0 4 2 11 6 SE 0,0
08.12.2017 03:00:00 2,4 1,7 0 0 8 4 N 0,0
08.12.2017 02:00:00 2,7 1,7 2 1 8 4 S 0,0
08.12.2017 01:00:00 2,8 1,8 4 2 9 5 S -
08.12.2017 00:00:00 3,1 2,1 4 2 16 9 SSE 0,0
07.12.2017 23:00:00 3,5 2,6 5 3 16 9 SSE 0,0
07.12.2017 22:00:00 3,4 2,4 8 4 16 9 SSE 0,0
07.12.2017 21:00:00 3,9 2,7 9 5 21 11 SE 0,0
07.12.2017 20:00:00 3,8 1,5 8 4 15 8 SSE 0,0
07.12.2017 19:00:00 3,9 1,3 8 4 13 7 SSE -
07.12.2017 18:00:00 5,1 1,6 5 3 11 6 SSE 0,0
07.12.2017 17:00:00 5,4 1,7 8 4 22 12 SE 0,0
07.12.2017 16:00:00 6,4 2,5 9 5 22 12 SE 0,0
07.12.2017 15:00:00 6,1 2,4 15 8 29 16 SE 0,0
07.12.2017 14:00:00 6,7 2,0 11 6 22 12 ESE 0,0
07.12.2017 13:00:00 6,6 1,7 9 5 18 10 SSE -
07.12.2017 12:00:00 6,2 1,7 8 4 18 10 SE 0,0
07.12.2017 11:00:00 4,2 0,0 8 4 15 8 SSE 0,0
07.12.2017 10:00:00 3,8 0,3 5 3 11 6 S 0,0
07.12.2017 09:00:00 2,0 0,8 4 2 9 5 SSE 0,0
07.12.2017 08:00:00 1,3 0,4 4 2 5 3 SSE 0,0
07.12.2017 07:00:00 0,9 0,3 4 2 5 3 SSW -
07.12.2017 06:00:00 0,9 0,2 0 0 5 3 N 0,0
07.12.2017 05:00:00 1,1 0,4 0 0 8 4 N 0,0
07.12.2017 04:00:00 1,1 0,5 4 2 8 4 WSW 0,0
07.12.2017 03:00:00 0,7 0,3 0 0 8 4 N 0,0
07.12.2017 02:00:00 0,0 -0,4 2 1 8 4 ENE 0,0
07.12.2017 01:00:00 -0,7 -1,3 4 2 11 6 SSE -
07.12.2017 00:00:00 -2,0 -3,0 0 0 5 3 N 0,0
06.12.2017 23:00:00 -2,1 -3,1 0 0 4 2 N 0,0
06.12.2017 22:00:00 -1,3 -2,1 0 0 5 3 N 0,0
06.12.2017 21:00:00 -1,1 -1,9 0 0 5 3 N 0,0
06.12.2017 20:00:00 -2,3 -3,0 0 0 4 2 N 0,0
06.12.2017 19:00:00 -1,7 -2,5 4 2 5 3 W -
06.12.2017 18:00:00 -0,7 -2,3 2 1 8 4 SW 0,0
06.12.2017 17:00:00 2,2 -0,9 4 2 13 7 SSW 0,0
06.12.2017 16:00:00 6,5 1,0 8 4 18 10 S 0,0
06.12.2017 15:00:00 6,8 1,3 9 5 21 11 SSE 0,0
06.12.2017 14:00:00 7,6 1,4 8 4 21 11 SSE 0,0
06.12.2017 13:00:00 6,9 0,3 9 5 18 10 SE -

tt = Température de l'air
td = dewpoint
ff = Vitesse du vent
fx = gusts
dd = Direction du vent
rr = Quantités de précipitations

stations d'obs. à proximité